Yosemite, Kentucky
Current Conditions -  °F | °C
As of 6:15 AM on Sunday 23 Nov 2014 (Local Time) from KDVK Reporting Station
Overcast Overcast  
Wind Chill: 44°   Ceiling: 11000
Heat Index: 46°   Visibility: 10mi
Dew Point: 36°   Wind: 5mph
Humidity: 66%   Direction: 150°SSE
Pressure: 30.02"   Gusts: NA
Location:  37.35°N, 84.82°W
Report Text: KDVK 231115Z AUTO 15004KT 10SM SCT050 OVC110 08/02 A3002 RMK AO2
Loading
Personal Weather Stations






























Interactive Weather Map New forecast layout! Learn more

10-Day Weather Forecast

Advertisements
Track Severe Weather on mobile